• Join FlightAware (Why Join?)
  • Login
  • US Flag 
11:49AM EDT


 

Airport Tracker/Info


-or-


 

Live Flight TrackerFlight Track Log ✈ N589H ✈ 05-Mar-2014 ✈ MDPC / PUJ - KPIE

Flight Track Log - Related Links

Times and Time Zones

All times are in EST time to prevent confusion due to time zone crossing. See the N589H flight status page for this flight to view local times or setup timezone preferences in your user account.

Time Position Orientation Groundspeed Altitude Reporting Facility
EST Latitude Longitude Course Direction KTS MPH feet Rate Location/Type
11:55AM 18.9781 -69.0494 299° West 416 479 38,000  Level Miami Center
11:56AM 18.7771 -68.7354 300° West  Level FlightAware Approximate
11:56AM 19.0131 -69.1242 296° West 344 396 23,600  Level Miami Center
11:57AM 18.8212 -68.8148 300° West  Level FlightAware Approximate
11:57AM 19.0500 -69.1986 298° West 323 372 24,700  Level Miami Center
11:58AM 18.8648 -68.8946 299° West  Level FlightAware Approximate
11:58AM 19.0908 -69.2731 300° West 301 346 25,700  Level Miami Center
11:59AM 18.9074 -68.9750 299° West  Level FlightAware Approximate
11:59AM 19.1278 -69.3478 298° West 288 331 26,400  Level Miami Center
12:00PM 18.9500 -69.0554 299° West  Level FlightAware Approximate
12:00PM 19.1689 -69.4242 300° West 288 331 27,200  Level Miami Center
12:01PM 19.2078 -69.5011 298° West 294 338 27,900 720 Climbing Miami Center
12:02PM 19.2467 -69.5758 299° West 299 344 28,700 840 Climbing Miami Center
12:03PM 19.2853 -69.6483 299° West 292 336 29,600 720 Climbing Miami Center
12:04PM 19.3222 -69.7253 297° West 292 336 30,200 540 Climbing Miami Center
12:05PM 19.3631 -69.8044 299° West 297 342 30,700 480 Climbing Miami Center
12:06PM 19.3950 -69.8642 300° West 297 342 31,200 600 Climbing Miami Center
12:07PM 19.4447 -69.9561 300° West 303 349 32,000 360 Climbing Miami Center
12:08PM 19.4839 -70.0397 296° West 308 354 32,000  Level Miami Center
12:09PM 19.5250 -70.1278 296° West 318 366 32,000  Level Miami Center
12:10PM 19.5722 -70.2069 302° West 323 372 32,000  Level Miami Center
12:11PM 19.6156 -70.2950 298° West 330 380 32,000  Level Miami Center
12:12PM 19.6589 -70.3875 296° West 342 394 32,000  Level Miami Center
12:13PM 19.7061 -70.4731 300° West 342 394 32,000  Level Miami Center
12:14PM 19.7492 -70.5636 297° West 337 388 32,000  Level Miami Center
12:15PM 19.8186 -70.6331 317° Northwest 337 388 32,000  Level Miami Center
12:16PM 19.8961 -70.6936 324° Northwest 337 388 32,000  Level Miami Center
12:17PM 19.9714 -70.7519 324° Northwest 337 388 32,000  Level Miami Center
12:18PM 20.0467 -70.8169 321° Northwest 337 388 32,000  Level Miami Center
12:20PM 20.1242 -70.8797 323° Northwest 344 396 32,000  Level Miami Center
12:21PM 20.2147 -70.9575 321° Northwest 344 396 32,000  Level Miami Center
12:22PM 20.2900 -71.0228 321° Northwest 349 402 32,000  Level Miami Center
12:23PM 20.3694 -71.0858 323° Northwest 349 402 32,000  Level Miami Center
12:24PM 20.4367 -71.1536 317° Northwest 349 402 32,000  Level Miami Center
12:25PM 20.4958 -71.2375 307° West 344 396 32,000  Level Miami Center
12:26PM 20.5531 -71.3192 307° West 350 403 32,000  Level Miami Center
12:27PM 20.6122 -71.4011 308° West 350 403 32,000  Level Miami Center
12:28PM 20.6694 -71.4828 307° West 350 403 32,000  Level Miami Center
12:29PM 20.7264 -71.5650 307° West 350 403 32,000  Level Miami Center
12:30PM 20.7856 -71.6469 308° West 350 403 32,000  Level Miami Center
12:31PM 20.8250 -71.7031 307° West 350 403 32,000  Level Miami Center
12:32PM 20.8969 -71.8025 308° West 350 403 32,000  Level Miami Center
12:33PM 20.9539 -71.8847 307° West 350 403 32,000  Level Miami Center
12:34PM 21.0108 -71.9669 307° West 350 403 32,000  Level Miami Center
12:35PM 21.0697 -72.0492 308° West 350 403 32,000  Level Miami Center
12:36PM 21.1264 -72.1317 306° West 350 403 32,000  Level Miami Center
12:37PM 21.1853 -72.2142 307° West 350 403 32,000  Level Miami Center
12:38PM 21.2439 -72.2944 308° West 350 403 32,000  Level Miami Center
12:39PM 21.3028 -72.3794 307° West 350 403 32,000  Level Miami Center
12:40PM 21.3594 -72.4600 307° West 350 403 32,000  Level Miami Center
12:41PM 21.4181 -72.5450 307° West 350 403 32,000  Level Miami Center
12:42PM 21.4769 -72.6278 307° West 350 403 32,000  Level Miami Center
12:43PM 21.5333 -72.7108 306° West 350 403 32,000  Level Miami Center
12:44PM 21.5897 -72.7939 306° West 350 403 32,000  Level Miami Center
12:45PM 21.6353 -72.8594 307° West 350 403 32,000  Level Miami Center
12:46PM 21.7047 -72.9600 307° West 350 403 32,000  Level Miami Center
12:47PM 21.7611 -73.0411 307° West 350 403 32,000  Level Miami Center
12:48PM 21.8067 -73.1044 308° West 350 403 32,000  Level Miami Center
12:49PM 21.8758 -73.2033 307° West 350 403 32,000  Level Miami Center
12:50PM 21.9300 -73.2867 305° West 350 403 32,000  Level Miami Center
12:51PM 21.9883 -73.3703 307° West 350 403 32,000  Level Miami Center
12:52PM 22.0422 -73.4517 306° West 350 403 32,000  Level Miami Center
12:53PM 22.1006 -73.5331 308° West 350 403 32,000  Level Miami Center
12:54PM 22.1586 -73.6192 306° West 350 403 32,000  Level Miami Center
12:55PM 22.2147 -73.7006 307° West 350 403 32,000  Level Miami Center
12:56PM 22.2689 -73.7981 301° West 350 403 32,000  Level Miami Center
12:57PM 22.3269 -73.8819 307° West 350 403 32,000  Level Miami Center
12:58PM 22.3808 -73.9661 305° West 344 396 32,000  Level Miami Center
12:59PM 22.4517 -74.0656 308° West 344 396 32,000  Level Miami Center
01:00PM 22.5011 -74.1478 303° West 344 396 32,000  Level Miami Center
01:01PM 22.5589 -74.2319 307° West 349 402 32,000  Level Miami Center
01:02PM 22.6169 -74.3164 307° West 349 402 32,000  Level Miami Center
01:03PM 22.6706 -74.4008 305° West 349 402 32,000  Level Miami Center
01:04PM 22.7281 -74.4831 307° West 349 402 32,000  Level Miami Center
01:05PM 22.7839 -74.5675 306° West 349 402 32,000  Level Miami Center
01:06PM 22.8331 -74.6411 306° West 349 402 32,000  Level Miami Center
01:07PM 22.8886 -74.7258 305° West 349 402 32,000  Level Miami Center
01:08PM 22.9461 -74.8083 307° West 349 402 32,000  Level Miami Center
01:09PM 22.9994 -74.8956 304° West 349 402 32,000  Level Miami Center
01:10PM 23.0569 -74.9803 306° West 349 402 32,000  Level Miami Center
01:11PM 23.1122 -75.0631 306° West 349 402 32,000  Level Miami Center
01:12PM 23.1697 -75.1483 306° West 349 402 32,000  Level Miami Center
01:13PM 23.2250 -75.2311 306° West 349 402 32,000  Level Miami Center
01:14PM 23.2781 -75.3142 305° West 349 402 32,000  Level Miami Center
01:15PM 23.3333 -75.3972 306° West 349 402 32,000  Level Miami Center
01:16PM 23.3883 -75.4803 306° West 349 402 32,000  Level Miami Center
01:17PM 23.4414 -75.5636 305° West 344 396 32,000  Level Miami Center
01:18PM 23.4964 -75.6444 307° West 344 396 32,000  Level Miami Center
01:19PM 23.5578 -75.7392 305° West 344 396 32,000  Level Miami Center
01:20PM 23.6125 -75.8225 306° West 344 396 32,000  Level Miami Center
01:21PM 23.6633 -75.9039 304° West 344 396 32,000  Level Miami Center
01:22PM 23.7161 -75.9897 304° West 339 390 32,000  Level Miami Center
01:23PM 23.7708 -76.0711 306° West 339 390 32,000  Level Miami Center
01:24PM 23.8214 -76.1547 303° West 339 390 32,000  Level Miami Center
01:25PM 23.8761 -76.2383 306° West 334 384 32,000  Level Miami Center
01:26PM 23.9308 -76.3200 306° West 334 384 32,000  Level Miami Center
01:27PM 23.9833 -76.4017 305° West 334 384 32,000  Level Miami Center
01:28PM 24.0358 -76.4858 304° West 334 384 32,000  Level Miami Center
01:29PM 24.0883 -76.5653 306° West 328 377 32,000  Level Miami Center
01:30PM 24.1406 -76.6517 304° West 328 377 32,000  Level Miami Center
01:31PM 24.1889 -76.7314 304° West 340 391 32,000  Level Miami Center
01:32PM 24.2433 -76.8133 306° West 340 391 32,000  Level Miami Center
01:33PM 24.2975 -76.8953 306° West 340 391 32,000  Level Miami Center
01:34PM 24.3497 -76.9775 305° West 340 391 32,000  Level Miami Center
01:35PM 24.4039 -77.0619 305° West 340 391 32,000  Level Miami Center
01:36PM 24.4561 -77.1442 305° West 335 386 32,000  Level Miami Center
01:37PM 24.5103 -77.2311 304° West 335 386 32,000  Level Miami Center
01:38PM 24.5622 -77.3136 305° West 335 386 32,000  Level Miami Center
01:39PM 24.6164 -77.3983 305° West 335 386 32,000  Level Miami Center
01:40PM 24.6725 -77.4900 304° West 335 386 32,000  Level Miami Center
01:41PM 24.7264 -77.5750 305° West 335 386 32,000  Level Miami Center
01:42PM 24.7803 -77.6578 306° West 335 386 32,000  Level Miami Center
01:43PM 24.8319 -77.7428 304° West 335 386 32,000  Level Miami Center
01:44PM 24.8839 -77.8256 305° West 335 386 32,000  Level Miami Center
01:45PM 24.9375 -77.9086 305° West 335 386 32,000  Level Miami Center
01:46PM 24.9892 -77.9914 305° West 335 386 32,000  Level Miami Center
01:47PM 25.0428 -78.0769 305° West 335 386 32,000  Level Miami Center
01:48PM 25.0964 -78.1600 305° West 335 386 32,000  Level Miami Center
01:49PM 25.1500 -78.2478 304° West 335 386 32,000  Level Miami Center
01:50PM 25.1911 -78.3125 305° West 335 386 32,000  Level Miami Center
01:51PM 25.2489 -78.4028 305° West 335 386 32,000  Level Miami Center
01:52PM 25.2981 -78.4861 303° West 335 386 32,000  Level Miami Center
01:53PM 25.3494 -78.5697 304° West 335 386 32,000  Level Miami Center
01:54PM 25.3903 -78.6392 303° West 335 386 32,000  Level Miami Center
01:55PM 25.4561 -78.7392 306° West 335 386 32,000  Level Miami Center
01:56PM 25.5008 -78.8228 301° West 335 386 32,000  Level Miami Center
01:57PM 25.5561 -78.9067 306° West 335 386 32,000  Level Miami Center
01:58PM 25.6092 -79.0019 302° West 330 380 32,000  Level Miami Center
01:59PM 25.6622 -79.0858 305° West 330 380 32,000  Level Miami Center
02:00PM 25.7131 -79.1697 304° West 330 380 32,000  Level Miami Center
02:01PM 25.7639 -79.2539 304° West 330 380 32,000  Level Miami Center
02:02PM 25.8147 -79.3381 304° West 330 380 32,000  Level Miami Center
02:03PM 25.8656 -79.4244 303° West 330 380 32,000  Level Miami Center
02:04PM 25.9061 -79.4900 305° West 330 380 32,000  Level Miami Center
02:05PM 25.9669 -79.5906 304° West 325 374 32,000  Level Miami Center
02:06PM 26.0197 -79.6750 305° West 325 374 32,000  Level Miami Center
02:07PM 26.0703 -79.7619 303° West 325 374 32,000  Level Miami Center
02:08PM 26.1167 -79.8439 302° West 325 374 32,000  Level Miami Center
02:09PM 26.1672 -79.9264 304° West 325 374 32,000  Level Miami Center
02:10PM 26.2156 -80.0061 304° West 325 374 32,000  Level Miami Center
02:11PM 26.2661 -80.0908 304° West 325 374 32,000  Level Miami Center
02:12PM 26.3164 -80.1736 304° West 325 374 32,000  Level Miami Center
02:13PM 26.3647 -80.2536 304° West 325 374 32,000  Level Miami Center
02:14PM 26.4108 -80.3361 302° West 325 374 32,000  Level Miami Center
02:15PM 26.4611 -80.4189 304° West 325 374 32,000  Level Miami Center
02:16PM 26.5133 -80.5039 304° West 325 374 32,000 -360 Level Miami Center
02:17PM 26.5592 -80.5889 301° West 325 374 31,300 -780 Descending Miami Center
02:18PM 26.6089 -80.6789 302° West 332 382 30,500 -840 Descending Miami Center
02:19PM 26.6631 -80.7667 305° West 337 388 29,700 -840 Descending Miami Center
02:20PM 26.7089 -80.8472 303° West 344 396 28,900 -900 Descending Miami Center
02:21PM 26.7586 -80.9325 303° West 338 389 28,000 -1,080 Descending Miami Center
02:22PM 26.8125 -81.0275 302° West 331 381 26,800 -1,020 Descending Miami Center
02:23PM 26.8661 -81.1156 304° West 331 381 25,800 -960 Descending Miami Center
02:24PM 26.9219 -81.2108 303° West 336 387 24,700 -900 Descending Miami Center
02:25PM 26.9714 -81.2964 303° West 336 387 24,000 -360 Descending Miami Center
02:26PM 27.0250 -81.3894 303° West 331 381 24,000 -720 Level Miami Center
02:27PM 27.0744 -81.4753 303° West 331 381 22,600 -1,500 Descending Miami Center
02:28PM 27.1239 -81.5611 303° West 331 381 21,100 -1,980 Descending Miami Center
02:29PM 27.1694 -81.6378 304° West 326 375 18,700 -2,400 Descending Miami Center
02:30PM 27.2206 -81.7308 302° West 326 375 16,300 -2,280 Descending Miami Center
02:31PM 27.2658 -81.8075 304° West 318 366 14,200 -2,100 Descending Miami Center
02:32PM 27.3072 -81.8817 302° West 302 348 12,100 -2,100 Descending Miami Center
02:33PM 27.3547 -81.9564 306° West 296 341 10,000 -2,040 Descending Miami Center
02:34PM 27.3981 -82.0306 303° West 291 335 8,100 -1,020 Descending Miami Center
02:35PM 27.4308 -82.1000 298° West 279 321 8,000 -60 Descending Miami Center
02:36PM 27.4744 -82.1650 307° West 274 315 8,000  Level Miami Center
02:37PM 27.5244 -82.2236 314° West 269 310 8,000 -360 Level Miami Center
02:38PM 27.5469 -82.2950 290° West 248 285 7,300 -960 Descending Miami Center
02:39PM 27.5500 -82.4000 272° West 248 285 5,800 -1,320 Descending Tampa TRACON
02:40PM 27.5667 -82.4833 283° West 260 299 4,300 -1,440 Descending Tampa TRACON
02:41PM 27.5667 -82.5500 270° West 254 292 3,000 -660 Descending Tampa TRACON
02:42PM 27.5833 -82.6167 286° West 213 245 3,000  Level Tampa TRACON
02:43PM 27.6000 -82.6833 286° West 196 226 3,000  Level Tampa TRACON
02:44PM 27.6500 -82.7333 318° Northwest 177 204 3,000  Level Tampa TRACON
02:45PM 27.6833 -82.7333 360° North 186 214 3,000  Level Tampa TRACON
02:46PM 27.7333 -82.7667 329° Northwest 192 221 3,000 -660 Level Tampa TRACON
02:47PM 27.7833 -82.7167 41° Northeast 220 253 1,700 -780 Descending Tampa TRACON
02:48PM 27.8333 -82.6833 31° Northeast 162 186 1,300 -480 Descending Tampa TRACON
02:49PM 27.8667 -82.6833 360° North 127 146 800 -660 Descending Tampa TRACON
02:51PM 27.9100 -82.6875 28° Northeast  Level Estimated
02:58PM 27.9100 -82.6875 204° Southwest  Level Estimated
02:59PM 27.9100 -82.6875 214° Southwest  Level Estimated